NCAR-RAP Real-Time Weather Data

Output produced by METARs form (24 November 2017  22:15 UTC)
found at http://weather.rap.ucar.edu/surface/
 
KIAD 242152Z 16005KT 10SM CLR 09/M01 A2995 RMK AO2 SLP145 T00891011
KIAD 242052Z 17006KT 10SM CLR 12/M03 A2996 RMK AO2 SLP146 T01221033 56016
KIAD 241952Z 20008KT 10SM CLR 13/M03 A2996 RMK AO2 SLP146 T01281033
KIAD 241852Z AUTO 19007KT 10SM CLR 12/M02 A2998 RMK AO2 SLP154 T01221022
KIAD 241752Z AUTO 19008KT 10SM CLR 11/M02 A3001 RMK AO2 SLP163 T01061017 10111 21039 58024
KIAD 241652Z AUTO 18008KT 10SM CLR 10/M02 A3004 RMK AO2 SLP174 T01001022
KIAD 241552Z AUTO VRB05KT 10SM CLR 08/M02 A3007 RMK AO2 SLP186 T00781017
KIAD 241452Z AUTO 19004KT 10SM CLR 04/M01 A3008 RMK AO2 SLP187 T00441011 50002
KIAD 241352Z AUTO 00000KT 10SM CLR 01/M02 A3009 RMK AO2 SLP191 T00111017
KIAD 241252Z 00000KT 10SM CLR M02/M03 A3009 RMK AO2 SLP192 T10171033
KIAD 241152Z 00000KT 10SM CLR M04/M04 A3007 RMK AO2 SLP187 T10391044 11022 21044 51005
KIAD 241052Z 00000KT 10SM CLR M04/M05 A3007 RMK AO2 SLP184 T10391050
KIAD 240952Z 00000KT 10SM CLR M04/M05 A3008 RMK AO2 SLP187 T10391050
KIAD 240852Z 00000KT 10SM CLR M03/M04 A3006 RMK AO2 SLP180 T10331044 58001
KIAD 240752Z 00000KT 10SM CLR M03/M04 A3007 RMK AO2 SLP186 T10331044
KIAD 240652Z 00000KT 10SM CLR M03/M05 A3006 RMK AO2 SLP180 T10331050
KIAD 240552Z 00000KT 10SM CLR M02/M04 A3006 RMK AO2 SLP181 T10221044 10006 21028 58003
KIAD 240452Z 00000KT 10SM CLR M02/M04 A3007 RMK AO2 SLP186 T10171039 400671039
KIAD 240352Z 16003KT 10SM CLR M02/M04 A3007 RMK AO2 SLP184 T10171039
KIAD 240252Z 00000KT 10SM CLR M02/M04 A3007 RMK AO2 SLP186 T10171039 53007
KIAD 240152Z 18004KT 10SM CLR M01/M04 A3007 RMK AO2 SLP184 T10061039
KIAD 240052Z 16004KT 10SM CLR M01/M04 A3005 RMK AO2 SLP179 T10061044
KIAD 232352Z 15003KT 10SM FEW150 M01/M04 A3005 RMK AO2 SLP179 T10061044 10067 21017 58006
KIAD 232252Z 00000KT 10SM FEW150 01/M04 A3007 RMK AO2 SLP185 T00061039
KIAD 232152Z 00000KT 10SM FEW150 03/M04 A3007 RMK AO2 SLP184 T00331044
KIAD 232052Z 29004KT 10SM FEW150 FEW250 07/M06 A3007 RMK AO2 SLP183 T00671056 56010
KIAD 231952Z 27006KT 10SM FEW250 07/M06 A3007 RMK AO2 SLP184 T00671056
KIAD 231852Z 23006KT 10SM CLR 07/M06 A3009 RMK AO2 SLP191 T00671056
KIAD 231752Z VRB06KT 10SM FEW250 06/M06 A3010 RMK AO2 SLP194 T00611056 10061 21033 58031
KIAD 231652Z 28008KT 10SM FEW250 05/M06 A3013 RMK AO2 SLP203 T00501056
KIAD 231552Z 35004KT 10SM FEW250 04/M06 A3017 RMK AO2 SLP217 T00391056
KIAD 231452Z 34007KT 10SM FEW250 03/M06 A3019 RMK AO2 SLP225 T00281056 50003
KIAD 231352Z 31006KT 10SM FEW250 01/M04 A3020 RMK AO2 SLP228 T00061044
KIAD 231252Z 30003KT 10SM FEW250 M02/M06 A3020 RMK AO2 SLP231 T10221061
KIAD 231152Z 33004KT 10SM FEW250 M03/M06 A3018 RMK AO2 SLP222 T10281061 10006 21039 51003
KIAD 231052Z 00000KT 10SM CLR M03/M06 A3018 RMK AO2 SLP222 T10281061
KIAD 230952Z 28003KT 10SM CLR M03/M06 A3017 RMK AO2 SLP219 T10281061
KIAD 230852Z 30004KT 10SM CLR M02/M06 A3017 RMK AO2 SLP219 T10171056 58001
KIAD 230752Z 33004KT 10SM CLR M01/M06 A3017 RMK AO2 SLP219 T10111056
KIAD 230652Z VRB03KT 10SM CLR M01/M05 A3018 RMK AO2 SLP221 T10061050
KIAD 230552Z 34005KT 10SM CLR 01/M05 A3017 RMK AO2 SLP219 T00061050 10044 20000 58008
KIAD 230452Z 33008KT 10SM FEW040 01/M05 A3018 RMK AO2 SLP220 T00111050 401330011
KIAD 230352Z 31005KT 10SM FEW047 02/M05 A3020 RMK AO2 SLP227 T00221050
KIAD 230252Z 33009KT 10SM FEW047 02/M05 A3020 RMK AO2 SLP227 T00221050 53016
KIAD 230152Z 31011KT 10SM FEW047 03/M04 A3018 RMK AO2 SLP221 T00281039
KIAD 230052Z 33009KT 10SM FEW047 03/M04 A3017 RMK AO2 SLP216 T00331039
KIAD 222352Z 33009KT 10SM FEW047 04/M04 A3015 RMK AO2 SLP211 T00441039 10117 20044 51022
KIAD 222252Z 32012KT 10SM SCT047 06/M04 A3014 RMK AO2 SLP207 T00561039
KIAD 222152Z 33013KT 10SM BKN048 07/M03 A3012 RMK AO2 SLP200 T00671033
KIAD 222052Z 34015G22KT 10SM BKN048 08/M02 A3008 RMK AO2 SLP188 T00831022 53019
KIAD 221952Z 34014G24KT 10SM SCT050 11/M02 A3006 RMK AO2 PK WND 34028/1855 SLP178 T01061017
KIAD 221852Z 34018G23KT 10SM SCT048 11/M02 A3004 RMK AO2 PK WND 33029/1753 SLP174 T01061017
KIAD 221752Z 33019G24KT 10SM FEW048 11/M01 A3003 RMK AO2 PK WND 30027/1708 SLP168 T01061011 10133 20078 50009
KIAD 221652Z 31019G29KT 10SM FEW050 10/M01 A3003 RMK AO2 PK WND 31032/1622 SLP169 T01001006
KIAD 221552Z 32018G30KT 10SM FEW055 12/01 A3002 RMK AO2 PK WND 29031/1532 SLP166 T01220011
KIAD 221452Z 32018G26KT 10SM FEW050 FEW120 13/02 A3000 RMK AO2 PK WND 32029/1437 SLP159 T01280017 53015
KIAD 221352Z 31017G21KT 10SM FEW120 BKN200 12/02 A2997 RMK AO2 SLP150 T01220022
KIAD 221252Z 31005KT 10SM BKN110 08/06 A2996 RMK AO2 SLP147 T00830056
KIAD 221152Z 28003KT 10SM FEW070 BKN100 08/06 A2996 RMK AO2 SLP143 T00780061 10122 20072 53010
KIAD 221052Z 00000KT 10SM OVC100 08/06 A2994 RMK AO2 SLP139 T00780061